sensor_id;sensor_type;location;lat;lon;timestamp;pressure;altitude;pressure_sealevel;temperature;humidity
46614;BME280;32338;50.430;6.806;2022-10-03T00:00:15;66282.81;;;7.93;100.00
46614;BME280;32338;50.430;6.806;2022-10-03T00:03:21;66272.53;;;7.89;100.00
46614;BME280;32338;50.430;6.806;2022-10-03T00:06:03;66273.66;;;7.90;100.00
46614;BME280;32338;50.430;6.806;2022-10-03T00:08:55;66279.25;;;7.88;100.00
46614;BME280;32338;50.430;6.806;2022-10-03T00:11:33;66275.69;;;7.89;100.00
46614;BME280;32338;50.430;6.806;2022-10-03T00:14:13;66277.75;;;7.89;100.00
46614;BME280;32338;50.430;6.806;2022-10-03T00:16:48;66273.28;;;7.92;100.00
46614;BME280;32338;50.430;6.806;2022-10-03T00:19:27;66281.47;;;7.90;100.00
46614;BME280;32338;50.430;6.806;2022-10-03T00:22:07;66275.84;;;7.85;100.00
46614;BME280;32338;50.430;6.806;2022-10-03T00:24:51;66265.03;;;7.79;100.00
46614;BME280;32338;50.430;6.806;2022-10-03T00:27:27;66267.28;;;7.82;100.00
46614;BME280;32338;50.430;6.806;2022-10-03T00:30:11;66260.19;;;7.77;100.00
46614;BME280;32338;50.430;6.806;2022-10-03T00:33:02;66260.53;;;7.75;100.00
46614;BME280;32338;50.430;6.806;2022-10-03T00:35:41;66270.25;;;7.79;100.00
46614;BME280;32338;50.430;6.806;2022-10-03T00:38:39;66261.47;;;7.74;100.00
46614;BME280;32338;50.430;6.806;2022-10-03T00:47:49;66256.03;;;7.71;100.00
46614;BME280;32338;50.430;6.806;2022-10-03T00:50:39;66255.25;;;7.68;100.00
46614;BME280;32338;50.430;6.806;2022-10-03T00:56:20;66252.09;;;7.68;100.00
46614;BME280;32338;50.430;6.806;2022-10-03T00:58:59;66248.38;;;7.67;100.00
46614;BME280;32338;50.430;6.806;2022-10-03T01:01:36;66255.84;;;7.69;100.00
46614;BME280;32338;50.430;6.806;2022-10-03T01:04:21;66250.97;;;7.67;100.00
46614;BME280;32338;50.430;6.806;2022-10-03T01:07:03;66253.00;;;7.66;100.00
46614;BME280;32338;50.430;6.806;2022-10-03T01:09:39;66256.19;;;7.67;100.00
46614;BME280;32338;50.430;6.806;2022-10-03T01:12:18;66250.41;;;7.66;100.00
46614;BME280;32338;50.430;6.806;2022-10-03T01:15:05;66247.03;;;7.63;100.00
46614;BME280;32338;50.430;6.806;2022-10-03T01:17:37;66253.78;;;7.69;100.00
46614;BME280;32338;50.430;6.806;2022-10-03T01:20:26;66256.78;;;7.74;100.00
46614;BME280;32338;50.430;6.806;2022-10-03T01:23:32;66265.75;;;7.75;100.00
46614;BME280;32338;50.430;6.806;2022-10-03T01:26:11;66268.94;;;7.83;100.00
46614;BME280;32338;50.430;6.806;2022-10-03T01:28:46;66264.81;;;7.77;100.00
46614;BME280;32338;50.430;6.806;2022-10-03T01:31:40;66260.88;;;7.73;100.00
46614;BME280;32338;50.430;6.806;2022-10-03T01:34:15;66260.13;;;7.70;100.00
46614;BME280;32338;50.430;6.806;2022-10-03T01:36:52;66248.38;;;7.67;100.00
46614;BME280;32338;50.430;6.806;2022-10-03T01:39:26;66248.91;;;7.67;100.00
46614;BME280;32338;50.430;6.806;2022-10-03T01:41:58;66250.41;;;7.66;100.00
46614;BME280;32338;50.430;6.806;2022-10-03T01:44:35;66249.28;;;7.65;100.00
46614;BME280;32338;50.430;6.806;2022-10-03T01:47:15;66248.16;;;7.64;100.00
46614;BME280;32338;50.430;6.806;2022-10-03T01:49:47;66245.91;;;7.62;100.00
46614;BME280;32338;50.430;6.806;2022-10-03T01:52:22;66249.09;;;7.62;100.00
46614;BME280;32338;50.430;6.806;2022-10-03T01:54:58;66245.91;;;7.62;100.00
46614;BME280;32338;50.430;6.806;2022-10-03T01:57:32;66247.97;;;7.61;100.00
46614;BME280;32338;50.430;6.806;2022-10-03T02:00:05;66247.03;;;7.63;100.00
46614;BME280;32338;50.430;6.806;2022-10-03T02:02:40;66229.41;;;7.44;100.00
46614;BME280;32338;50.430;6.806;2022-10-03T02:05:14;66223.03;;;7.36;100.00
46614;BME280;32338;50.430;6.806;2022-10-03T02:07:48;66221.75;;;7.40;100.00
46614;BME280;32338;50.430;6.806;2022-10-03T02:10:25;66227.19;;;7.42;100.00
46614;BME280;32338;50.430;6.806;2022-10-03T02:13:00;66209.97;;;7.29;100.00
46614;BME280;32338;50.430;6.806;2022-10-03T02:15:34;66189.53;;;7.08;100.00
46614;BME280;32338;50.430;6.806;2022-10-03T02:18:12;66176.81;;;6.98;100.00
46614;BME280;32338;50.430;6.806;2022-10-03T02:20:44;66189.19;;;7.10;100.00
46614;BME280;32338;50.430;6.806;2022-10-03T02:23:24;66186.94;;;7.08;100.00
46614;BME280;32338;50.430;6.806;2022-10-03T02:26:13;66191.41;;;7.12;100.00
46614;BME280;32338;50.430;6.806;2022-10-03T02:29:06;66184.66;;;7.06;100.00
46614;BME280;32338;50.430;6.806;2022-10-03T02:32:09;66182.38;;;6.96;100.00
46614;BME280;32338;50.430;6.806;2022-10-03T02:35:07;66164.25;;;6.85;100.00
46614;BME280;32338;50.430;6.806;2022-10-03T02:41:16;66140.31;;;6.65;100.00
46614;BME280;32338;50.430;6.806;2022-10-03T02:47:14;66144.06;;;6.66;100.00
46614;BME280;32338;50.430;6.806;2022-10-03T02:53:35;66161.81;;;6.80;100.00
46614;BME280;32338;50.430;6.806;2022-10-03T02:56:41;66171.38;;;6.96;100.00
46614;BME280;32338;50.430;6.806;2022-10-03T02:59:35;66174.00;;;6.96;100.00
46614;BME280;32338;50.430;6.806;2022-10-03T03:02:27;66162.00;;;6.82;100.00
46614;BME280;32338;50.430;6.806;2022-10-03T03:17:22;66161.28;;;6.87;100.00
46614;BME280;32338;50.430;6.806;2022-10-03T03:20:19;66170.78;;;6.88;100.00
46614;BME280;32338;50.430;6.806;2022-10-03T03:23:02;66172.13;;;6.92;100.00
46614;BME280;32338;50.430;6.806;2022-10-03T03:25:51;66161.63;;;6.85;100.00
46614;BME280;32338;50.430;6.806;2022-10-03T03:28:32;66172.47;;;6.90;100.00
46614;BME280;32338;50.430;6.806;2022-10-03T03:31:08;66171.56;;;6.91;100.00
46614;BME280;32338;50.430;6.806;2022-10-03T03:33:48;66181.09;;;7.00;100.00
46614;BME280;32338;50.430;6.806;2022-10-03T03:36:24;66179.97;;;6.99;100.00
46614;BME280;32338;50.430;6.806;2022-10-03T03:39:03;66192.69;;;7.08;100.00
46614;BME280;32338;50.430;6.806;2022-10-03T03:41:45;66175.31;;;7.00;100.00
46614;BME280;32338;50.430;6.806;2022-10-03T03:44:43;66171.03;;;6.98;100.00
46614;BME280;32338;50.430;6.806;2022-10-03T03:47:25;66180.34;;;6.97;100.00
46614;BME280;32338;50.430;6.806;2022-10-03T03:53:09;66174.00;;;6.96;100.00
46614;BME280;32338;50.430;6.806;2022-10-03T03:55:49;66180.53;;;7.00;100.00
46614;BME280;32338;50.430;6.806;2022-10-03T03:58:30;66175.69;;;6.97;100.00
46614;BME280;32338;50.430;6.806;2022-10-03T04:01:13;66178.84;;;6.98;100.00
46614;BME280;32338;50.430;6.806;2022-10-03T04:03:53;66184.28;;;7.01;100.00
46614;BME280;32338;50.430;6.806;2022-10-03T04:06:42;66178.50;;;7.00;100.00
46614;BME280;32338;50.430;6.806;2022-10-03T04:12:13;66178.50;;;7.00;100.00
46614;BME280;32338;50.430;6.806;2022-10-03T04:14:54;66162.22;;;6.85;100.00
46614;BME280;32338;50.430;6.806;2022-10-03T04:17:30;66158.63;;;6.79;100.00
46614;BME280;32338;50.430;6.806;2022-10-03T04:20:27;66148.53;;;6.70;100.00
46614;BME280;32338;50.430;6.806;2022-10-03T04:23:15;66136.75;;;6.59;100.00
46614;BME280;32338;50.430;6.806;2022-10-03T04:26:03;66150.78;;;6.72;100.00
46614;BME280;32338;50.430;6.806;2022-10-03T04:28:58;66124.59;;;6.51;100.00
46614;BME280;32338;50.430;6.806;2022-10-03T04:31:38;66116.16;;;6.43;100.00
46614;BME280;32338;50.430;6.806;2022-10-03T04:34:17;66115.78;;;6.38;100.00
46614;BME280;32338;50.430;6.806;2022-10-03T04:36:57;66109.09;;;6.39;100.00
46614;BME280;32338;50.430;6.806;2022-10-03T04:39:39;66117.84;;;6.44;100.00
46614;BME280;32338;50.430;6.806;2022-10-03T04:42:12;66119.91;;;6.44;100.00
46614;BME280;32338;50.430;6.806;2022-10-03T04:44:56;66121.59;;;6.45;100.00
46614;BME280;32338;50.430;6.806;2022-10-03T04:47:28;66101.16;;;6.24;100.00
46614;BME280;32338;50.430;6.806;2022-10-03T04:50:01;66082.09;;;6.07;100.00
46614;BME280;32338;50.430;6.806;2022-10-03T04:52:33;66088.47;;;6.15;100.00
46614;BME280;32338;50.430;6.806;2022-10-03T04:55:16;66097.44;;;6.23;100.00
46614;BME280;32338;50.430;6.806;2022-10-03T04:57:51;66081.94;;;6.11;100.00
46614;BME280;32338;50.430;6.806;2022-10-03T05:00:23;66063.97;;;5.95;100.00
46614;BME280;32338;50.430;6.806;2022-10-03T05:03:00;66074.63;;;6.05;100.00
46614;BME280;32338;50.430;6.806;2022-10-03T05:05:47;66080.97;;;6.06;100.00
46614;BME280;32338;50.430;6.806;2022-10-03T05:08:28;66068.47;;;5.99;100.00
46614;BME280;32338;50.430;6.806;2022-10-03T05:11:07;66067.25;;;5.91;100.00
46614;BME280;32338;50.430;6.806;2022-10-03T05:13:48;66077.44;;;6.07;100.00
46614;BME280;32338;50.430;6.806;2022-10-03T05:16:22;66083.06;;;6.12;100.00
46614;BME280;32338;50.430;6.806;2022-10-03T05:18:55;66086.41;;;6.15;100.00
46614;BME280;32338;50.430;6.806;2022-10-03T05:21:32;66094.28;;;6.23;100.00
46614;BME280;32338;50.430;6.806;2022-10-03T05:24:08;66082.34;;;6.16;100.00
46614;BME280;32338;50.430;6.806;2022-10-03T05:26:45;66083.06;;;6.12;100.00
46614;BME280;32338;50.430;6.806;2022-10-03T05:29:25;66081.94;;;6.11;100.00
46614;BME280;32338;50.430;6.806;2022-10-03T05:32:04;66071.28;;;6.02;100.00
46614;BME280;32338;50.430;6.806;2022-10-03T05:34:42;66057.22;;;5.89;100.00
46614;BME280;32338;50.430;6.806;2022-10-03T05:37:40;66050.69;;;5.85;100.00
46614;BME280;32338;50.430;6.806;2022-10-03T05:40:14;66058.91;;;5.90;100.00
46614;BME280;32338;50.430;6.806;2022-10-03T05:42:58;66056.81;;;5.83;100.00
46614;BME280;32338;50.430;6.806;2022-10-03T05:45:28;66050.50;;;5.82;100.00
46614;BME280;32338;50.430;6.806;2022-10-03T05:48:20;66072.94;;;6.03;100.00
46614;BME280;32338;50.430;6.806;2022-10-03T05:54:21;66081.94;;;6.11;100.00
46614;BME280;32338;50.430;6.806;2022-10-03T05:57:09;66092.41;;;6.19;100.00
46614;BME280;32338;50.430;6.806;2022-10-03T06:00:08;66085.66;;;6.12;100.00
46614;BME280;32338;50.430;6.806;2022-10-03T06:03:12;66083.41;;;6.10;100.00
46614;BME280;32338;50.430;6.806;2022-10-03T06:06:06;66088.28;;;6.12;100.00
46614;BME280;32338;50.430;6.806;2022-10-03T06:08:50;66099.69;;;6.25;100.00
46614;BME280;32338;50.430;6.806;2022-10-03T06:14:38;66096.88;;;6.23;100.00
46614;BME280;32338;50.430;6.806;2022-10-03T06:17:39;66091.69;;;6.23;100.00
46614;BME280;32338;50.430;6.806;2022-10-03T06:23:12;66090.34;;;6.19;100.00
46614;BME280;32338;50.430;6.806;2022-10-03T06:26:03;66093.72;;;6.22;100.00
46614;BME280;32338;50.430;6.806;2022-10-03T06:29:11;66097.03;;;6.18;100.00
46614;BME280;32338;50.430;6.806;2022-10-03T06:32:13;66083.97;;;6.11;100.00
46614;BME280;32338;50.430;6.806;2022-10-03T06:38:16;66101.38;;;6.27;100.00
46614;BME280;32338;50.430;6.806;2022-10-03T06:44:09;66111.88;;;6.41;100.00
46614;BME280;32338;50.430;6.806;2022-10-03T06:47:04;66112.59;;;6.37;100.00
46614;BME280;32338;50.430;6.806;2022-10-03T06:49:54;66123.47;;;6.49;100.00
46614;BME280;32338;50.430;6.806;2022-10-03T06:53:07;66145.16;;;6.67;100.00
46614;BME280;32338;50.430;6.806;2022-10-03T06:56:06;66146.13;;;6.73;100.00
46614;BME280;32338;50.430;6.806;2022-10-03T07:02:17;66187.66;;;7.04;100.00
46614;BME280;32338;50.430;6.806;2022-10-03T07:11:04;66186.16;;;7.05;100.00
46614;BME280;32338;50.430;6.806;2022-10-03T07:13:58;66177.19;;;6.96;100.00
46614;BME280;32338;50.430;6.806;2022-10-03T07:19:49;66204.91;;;7.24;100.00
46614;BME280;32338;50.430;6.806;2022-10-03T07:22:59;66223.78;;;7.39;100.00
46614;BME280;32338;50.430;6.806;2022-10-03T07:28:58;66230.75;;;7.48;100.00
46614;BME280;32338;50.430;6.806;2022-10-03T07:31:42;66239.53;;;7.54;100.00
46614;BME280;32338;50.430;6.806;2022-10-03T07:34:23;66221.19;;;7.39;100.00
46614;BME280;32338;50.430;6.806;2022-10-03T07:43:39;66252.25;;;7.63;100.00
46614;BME280;32338;50.430;6.806;2022-10-03T07:46:39;66258.47;;;7.76;100.00
46614;BME280;32338;50.430;6.806;2022-10-03T07:49:38;66278.88;;;7.90;100.00
46614;BME280;32338;50.430;6.806;2022-10-03T07:52:29;66280.75;;;7.94;100.00
46614;BME280;32338;50.430;6.806;2022-10-03T07:55:17;66290.88;;;8.03;100.00
46614;BME280;32338;50.430;6.806;2022-10-03T08:01:07;66310.56;;;8.21;100.00
46614;BME280;32338;50.430;6.806;2022-10-03T08:03:55;66311.13;;;8.22;100.00
46614;BME280;32338;50.430;6.806;2022-10-03T08:06:36;66337.22;;;8.48;100.00
46614;BME280;32338;50.430;6.806;2022-10-03T08:09:33;66346.94;;;8.52;100.00
46614;BME280;32338;50.430;6.806;2022-10-03T08:15:22;66364.22;;;8.73;100.00
46614;BME280;32338;50.430;6.806;2022-10-03T08:20:52;66370.75;;;8.76;100.00
46614;BME280;32338;50.430;6.806;2022-10-03T08:23:51;66386.88;;;8.89;100.00
46614;BME280;32338;50.430;6.806;2022-10-03T08:26:35;66390.09;;;8.97;100.00
46614;BME280;32338;50.430;6.806;2022-10-03T08:29:28;66399.25;;;9.00;100.00
46614;BME280;32338;50.430;6.806;2022-10-03T08:32:34;66406.00;;;9.06;100.00
46614;BME280;32338;50.430;6.806;2022-10-03T08:35:33;66412.19;;;9.12;100.00
46614;BME280;32338;50.430;6.806;2022-10-03T08:38:40;66423.63;;;9.25;100.00
46614;BME280;32338;50.430;6.806;2022-10-03T08:41:47;66444.84;;;9.42;100.00
46614;BME280;32338;50.430;6.806;2022-10-03T08:44:47;66449.53;;;9.49;100.00
46614;BME280;32338;50.430;6.806;2022-10-03T08:50:34;66486.91;;;9.85;100.00
46614;BME280;32338;50.430;6.806;2022-10-03T08:56:14;66526.09;;;10.19;100.00
46614;BME280;32338;50.430;6.806;2022-10-03T09:05:44;66513.34;;;10.10;100.00
46614;BME280;32338;50.430;6.806;2022-10-03T09:08:38;66521.03;;;10.14;100.00
46614;BME280;32338;50.430;6.806;2022-10-03T09:11:31;66517.47;;;10.09;100.00
46614;BME280;32338;50.430;6.806;2022-10-03T09:17:23;66558.78;;;10.49;100.00
46614;BME280;32338;50.430;6.806;2022-10-03T09:20:16;66568.19;;;10.55;100.00
46614;BME280;32338;50.430;6.806;2022-10-03T09:23:00;66545.47;;;10.39;100.00
46614;BME280;32338;50.430;6.806;2022-10-03T09:25:40;66548.66;;;10.40;100.00
46614;BME280;32338;50.430;6.806;2022-10-03T09:28:32;66546.03;;;10.40;100.00
46614;BME280;32338;50.430;6.806;2022-10-03T09:31:16;66536.44;;;10.31;100.00
46614;BME280;32338;50.430;6.806;2022-10-03T09:34:17;66532.50;;;10.27;100.00
46614;BME280;32338;50.430;6.806;2022-10-03T09:37:12;66554.66;;;10.43;100.00
46614;BME280;32338;50.430;6.806;2022-10-03T09:43:13;66537.38;;;10.29;100.00
46614;BME280;32338;50.430;6.806;2022-10-03T09:46:07;66558.25;;;10.48;100.00
46614;BME280;32338;50.430;6.806;2022-10-03T09:49:00;66558.78;;;10.49;100.00
46614;BME280;32338;50.430;6.806;2022-10-03T09:51:45;66564.44;;;10.54;100.00
46614;BME280;32338;50.430;6.806;2022-10-03T09:54:55;66568.94;;;10.58;100.00
46614;BME280;32338;50.430;6.806;2022-10-03T09:57:57;66577.59;;;10.68;100.00
46614;BME280;32338;50.430;6.806;2022-10-03T10:00:39;66594.69;;;10.79;100.00
46614;BME280;32338;50.430;6.806;2022-10-03T10:06:43;66595.44;;;10.82;100.00
46614;BME280;32338;50.430;6.806;2022-10-03T10:09:51;66614.78;;;11.02;100.00
46614;BME280;32338;50.430;6.806;2022-10-03T10:12:49;66634.31;;;11.18;100.00
46614;BME280;32338;50.430;6.806;2022-10-03T10:16:08;66633.75;;;11.17;100.00
46614;BME280;32338;50.430;6.806;2022-10-03T10:18:54;66660.63;;;11.40;100.00
46614;BME280;32338;50.430;6.806;2022-10-03T10:21:41;66699.53;;;11.75;100.00
46614;BME280;32338;50.430;6.806;2022-10-03T10:24:33;66679.97;;;11.60;100.00
46614;BME280;32338;50.430;6.806;2022-10-03T10:27:37;66682.44;;;11.64;100.00
46614;BME280;32338;50.430;6.806;2022-10-03T10:30:21;66666.66;;;11.50;100.00
46614;BME280;32338;50.430;6.806;2022-10-03T10:36:20;66664.56;;;11.43;100.00
46614;BME280;32338;50.430;6.806;2022-10-03T10:39:29;66659.50;;;11.39;100.00
46614;BME280;32338;50.430;6.806;2022-10-03T10:42:29;66686.75;;;11.66;100.00
46614;BME280;32338;50.430;6.806;2022-10-03T10:45:23;66679.03;;;11.54;100.00
46614;BME280;32338;50.430;6.806;2022-10-03T10:54:45;66726.81;;;12.03;100.00
46614;BME280;32338;50.430;6.806;2022-10-03T10:57:40;66743.00;;;12.15;100.00
46614;BME280;32338;50.430;6.806;2022-10-03T11:00:17;66743.72;;;12.18;100.00
46614;BME280;32338;50.430;6.806;2022-10-03T11:09:40;66699.91;;;11.80;100.00
46614;BME280;32338;50.430;6.806;2022-10-03T11:18:49;66709.13;;;11.84;100.00
46614;BME280;32338;50.430;6.806;2022-10-03T11:21:45;66698.03;;;11.76;100.00
46614;BME280;32338;50.430;6.806;2022-10-03T11:31:03;66774.03;;;12.43;100.00
46614;BME280;32338;50.430;6.806;2022-10-03T11:34:05;66740.34;;;12.15;100.00
46614;BME280;32338;50.430;6.806;2022-10-03T11:37:01;66718.88;;;11.95;100.00
46614;BME280;32338;50.430;6.806;2022-10-03T11:39:39;66746.94;;;12.19;100.00
46614;BME280;32338;50.430;6.806;2022-10-03T11:42:18;66762.16;;;12.32;100.00
46614;BME280;32338;50.430;6.806;2022-10-03T11:44:54;66732.84;;;12.06;100.00
46614;BME280;32338;50.430;6.806;2022-10-03T11:47:43;66727.94;;;12.04;100.00
46614;BME280;32338;50.430;6.806;2022-10-03T11:50:32;66728.69;;;12.07;100.00
46614;BME280;32338;50.430;6.806;2022-10-03T11:53:30;66734.91;;;12.12;100.00
46614;BME280;32338;50.430;6.806;2022-10-03T11:56:30;66738.09;;;12.13;100.00
46614;BME280;32338;50.430;6.806;2022-10-03T11:59:22;66771.41;;;12.43;100.00
46614;BME280;32338;50.430;6.806;2022-10-03T12:02:05;66787.38;;;12.53;100.00
46614;BME280;32338;50.430;6.806;2022-10-03T12:04:44;66776.66;;;12.51;100.00
46614;BME280;32338;50.430;6.806;2022-10-03T12:07:36;66816.56;;;12.85;100.00
46614;BME280;32338;50.430;6.806;2022-10-03T12:10:32;66855.13;;;13.22;100.00
46614;BME280;32338;50.430;6.806;2022-10-03T12:13:07;66854.38;;;13.19;95.47
46614;BME280;32338;50.430;6.806;2022-10-03T12:15:40;66844.97;;;13.13;100.00
46614;BME280;32338;50.430;6.806;2022-10-03T12:18:12;66877.91;;;13.45;100.00
46614;BME280;32338;50.430;6.806;2022-10-03T12:20:57;66912.75;;;13.75;96.77
46614;BME280;32338;50.430;6.806;2022-10-03T12:23:37;66880.56;;;13.45;92.89
46614;BME280;32338;50.430;6.806;2022-10-03T12:26:15;66887.16;;;13.49;91.47
46614;BME280;32338;50.430;6.806;2022-10-03T12:28:44;66865.88;;;13.32;90.12
46614;BME280;32338;50.430;6.806;2022-10-03T12:31:20;66831.22;;;12.98;92.70
46614;BME280;32338;50.430;6.806;2022-10-03T12:33:53;66790.59;;;12.61;92.99
46614;BME280;32338;50.430;6.806;2022-10-03T12:36:26;66763.31;;;12.33;94.42
46614;BME280;32338;50.430;6.806;2022-10-03T12:39:08;66771.59;;;12.46;100.00
46614;BME280;32338;50.430;6.806;2022-10-03T12:41:55;66766.88;;;12.39;100.00
46614;BME280;32338;50.430;6.806;2022-10-03T12:44:37;66773.09;;;12.45;100.00
46614;BME280;32338;50.430;6.806;2022-10-03T12:47:21;66802.44;;;12.72;100.00
46614;BME280;32338;50.430;6.806;2022-10-03T12:49:54;66809.19;;;12.78;100.00
46614;BME280;32338;50.430;6.806;2022-10-03T12:52:24;66797.16;;;12.72;100.00
46614;BME280;32338;50.430;6.806;2022-10-03T12:55:05;66810.34;;;12.79;100.00
46614;BME280;32338;50.430;6.806;2022-10-03T12:57:47;66819.94;;;12.88;100.00
46614;BME280;32338;50.430;6.806;2022-10-03T13:00:19;66820.50;;;12.88;100.00
46614;BME280;32338;50.430;6.806;2022-10-03T13:03:00;66801.88;;;12.71;100.00
46614;BME280;32338;50.430;6.806;2022-10-03T13:05:37;66817.66;;;12.86;100.00
46614;BME280;32338;50.430;6.806;2022-10-03T13:08:21;66811.66;;;12.82;100.00
46614;BME280;32338;50.430;6.806;2022-10-03T13:10:56;66815.03;;;12.86;100.00
46614;BME280;32338;50.430;6.806;2022-10-03T13:13:29;66815.22;;;12.81;100.00
46614;BME280;32338;50.430;6.806;2022-10-03T13:16:14;66806.75;;;12.80;100.00
46614;BME280;32338;50.430;6.806;2022-10-03T13:18:52;66837.06;;;13.06;100.00
46614;BME280;32338;50.430;6.806;2022-10-03T13:21:30;66845.16;;;13.08;100.00
46614;BME280;32338;50.430;6.806;2022-10-03T13:24:03;66848.16;;;13.13;98.80
46614;BME280;32338;50.430;6.806;2022-10-03T13:26:47;66852.13;;;13.17;99.87
46614;BME280;32338;50.430;6.806;2022-10-03T13:29:21;66854.19;;;13.17;100.00
46614;BME280;32338;50.430;6.806;2022-10-03T13:31:58;66843.63;;;13.09;100.00
46614;BME280;32338;50.430;6.806;2022-10-03T13:34:32;66841.00;;;13.09;100.00
46614;BME280;32338;50.430;6.806;2022-10-03T13:37:04;66840.06;;;13.04;100.00
46614;BME280;32338;50.430;6.806;2022-10-03T13:39:43;66840.06;;;13.04;100.00
46614;BME280;32338;50.430;6.806;2022-10-03T13:42:17;66836.31;;;13.03;100.00
46614;BME280;32338;50.430;6.806;2022-10-03T13:44:49;66830.09;;;12.97;100.00
46614;BME280;32338;50.430;6.806;2022-10-03T13:47:41;66820.50;;;12.88;100.00
46614;BME280;32338;50.430;6.806;2022-10-03T13:50:14;66823.31;;;12.91;100.00
46614;BME280;32338;50.430;6.806;2022-10-03T13:52:47;66811.09;;;12.82;100.00
46614;BME280;32338;50.430;6.806;2022-10-03T13:55:27;66831.22;;;12.98;100.00
46614;BME280;32338;50.430;6.806;2022-10-03T13:58:10;66829.34;;;12.94;100.00
46614;BME280;32338;50.430;6.806;2022-10-03T14:03:36;66826.91;;;12.96;100.00
46614;BME280;32338;50.430;6.806;2022-10-03T14:06:15;66803.00;;;12.72;100.00
46614;BME280;32338;50.430;6.806;2022-10-03T14:08:57;66798.69;;;12.71;100.00
46614;BME280;32338;50.430;6.806;2022-10-03T14:11:38;66796.22;;;12.66;100.00
46614;BME280;32338;50.430;6.806;2022-10-03T14:14:46;66799.59;;;12.69;100.00
46614;BME280;32338;50.430;6.806;2022-10-03T14:17:23;66811.28;;;12.77;100.00
46614;BME280;32338;50.430;6.806;2022-10-03T14:20:05;66815.97;;;12.84;100.00
46614;BME280;32338;50.430;6.806;2022-10-03T14:22:46;66827.25;;;12.94;100.00
46614;BME280;32338;50.430;6.806;2022-10-03T14:25:22;66818.25;;;12.86;100.00
46614;BME280;32338;50.430;6.806;2022-10-03T14:27:53;66814.47;;;12.85;100.00
46614;BME280;32338;50.430;6.806;2022-10-03T14:30:23;66829.53;;;12.96;100.00
46614;BME280;32338;50.430;6.806;2022-10-03T14:33:03;66846.28;;;13.17;100.00
46614;BME280;32338;50.430;6.806;2022-10-03T14:35:38;66848.34;;;13.16;100.00
46614;BME280;32338;50.430;6.806;2022-10-03T14:38:20;66848.53;;;13.11;100.00
46614;BME280;32338;50.430;6.806;2022-10-03T14:41:13;66911.63;;;13.74;100.00
46614;BME280;32338;50.430;6.806;2022-10-03T14:43:46;66957.38;;;14.16;100.00
46614;BME280;32338;50.430;6.806;2022-10-03T14:46:17;66941.75;;;13.97;100.00
46614;BME280;32338;50.430;6.806;2022-10-03T14:48:46;67022.44;;;14.75;98.77
46614;BME280;32338;50.430;6.806;2022-10-03T14:51:18;67024.31;;;14.72;100.00
46614;BME280;32338;50.430;6.806;2022-10-03T14:53:51;67034.69;;;14.84;97.65
46614;BME280;32338;50.430;6.806;2022-10-03T14:56:20;67009.00;;;14.58;97.20
46614;BME280;32338;50.430;6.806;2022-10-03T14:58:50;67031.47;;;14.83;100.00
46614;BME280;32338;50.430;6.806;2022-10-03T15:01:21;67009.19;;;14.60;100.00
46614;BME280;32338;50.430;6.806;2022-10-03T15:03:55;67111.41;;;15.51;90.97
46614;BME280;32338;50.430;6.806;2022-10-03T15:06:53;67168.38;;;16.08;82.14
46614;BME280;32338;50.430;6.806;2022-10-03T15:09:23;67145.19;;;15.87;77.95
46614;BME280;32338;50.430;6.806;2022-10-03T15:11:53;67086.13;;;15.31;82.93
46614;BME280;32338;50.430;6.806;2022-10-03T15:14:24;67104.22;;;15.47;81.85
46614;BME280;32338;50.430;6.806;2022-10-03T15:16:55;67077.09;;;15.22;82.86
46614;BME280;32338;50.430;6.806;2022-10-03T15:19:27;67048.03;;;15.01;89.95
46614;BME280;32338;50.430;6.806;2022-10-03T15:22:01;67037.09;;;14.88;97.06
46614;BME280;32338;50.430;6.806;2022-10-03T15:24:31;67006.56;;;14.60;98.27
46614;BME280;32338;50.430;6.806;2022-10-03T15:27:02;66996.94;;;14.52;100.00
46614;BME280;32338;50.430;6.806;2022-10-03T15:29:30;66980.94;;;14.35;100.00
46614;BME280;32338;50.430;6.806;2022-10-03T15:32:02;66974.16;;;14.29;100.00
46614;BME280;32338;50.430;6.806;2022-10-03T15:34:32;66957.38;;;14.16;100.00
46614;BME280;32338;50.430;6.806;2022-10-03T15:37:08;66929.88;;;13.93;100.00
46614;BME280;32338;50.430;6.806;2022-10-03T15:39:39;66920.47;;;13.79;100.00
46614;BME280;32338;50.430;6.806;2022-10-03T15:42:19;66909.94;;;13.72;100.00
46614;BME280;32338;50.430;6.806;2022-10-03T15:44:49;66894.88;;;13.54;100.00
46614;BME280;32338;50.430;6.806;2022-10-03T15:47:21;66892.03;;;13.51;100.00
46614;BME280;32338;50.430;6.806;2022-10-03T15:49:51;66878.88;;;13.44;100.00
46614;BME280;32338;50.430;6.806;2022-10-03T15:52:25;66870.19;;;13.34;100.00
46614;BME280;32338;50.430;6.806;2022-10-03T15:54:59;66848.16;;;13.13;100.00
46614;BME280;32338;50.430;6.806;2022-10-03T15:57:29;66856.63;;;13.21;100.00
46614;BME280;32338;50.430;6.806;2022-10-03T15:59:57;66854.00;;;13.21;100.00
46614;BME280;32338;50.430;6.806;2022-10-03T16:02:30;66841.94;;;13.08;100.00
46614;BME280;32338;50.430;6.806;2022-10-03T16:04:59;66834.63;;;13.01;100.00
46614;BME280;32338;50.430;6.806;2022-10-03T16:07:35;66832.53;;;13.02;100.00
46614;BME280;32338;50.430;6.806;2022-10-03T16:10:13;66815.97;;;12.84;100.00
46614;BME280;32338;50.430;6.806;2022-10-03T16:12:49;66798.69;;;12.71;100.00
46614;BME280;32338;50.430;6.806;2022-10-03T16:15:21;66790.00;;;12.60;100.00
46614;BME280;32338;50.430;6.806;2022-10-03T16:17:55;66767.28;;;12.44;100.00
46614;BME280;32338;50.430;6.806;2022-10-03T16:20:25;66768.38;;;12.38;100.00
46614;BME280;32338;50.430;6.806;2022-10-03T16:22:55;66766.50;;;12.41;100.00
46614;BME280;32338;50.430;6.806;2022-10-03T16:25:25;66761.06;;;12.39;100.00
46614;BME280;32338;50.430;6.806;2022-10-03T16:27:57;66757.84;;;12.31;100.00
46614;BME280;32338;50.430;6.806;2022-10-03T16:30:27;66752.03;;;12.23;100.00
46614;BME280;32338;50.430;6.806;2022-10-03T16:33:02;66734.91;;;12.12;100.00
46614;BME280;32338;50.430;6.806;2022-10-03T16:35:35;66728.69;;;12.07;100.00